Time;durP1;ratioP1;P1;durP2;ratioP2;P2;SDS_P1;SDS_P2;PMS_P1;PMS_P2;Temp;Humidity;BMP_temperature;BMP_pressure;BME280_temperature;BME280_humidity;BME280_pressure;Samples;Min_cycle;Max_cycle;Signal;HPM_P1;HPM_P2
2021/05/05 00:00:31;;;;;;;2.30;1.33;;;9.10;99.90;;;;;;5025071;27;20542;-77
2021/05/05 00:02:57;;;;;;;4.33;1.40;;;9.10;99.90;;;;;;5012669;28;20497;-77
2021/05/05 00:05:23;;;;;;;0.97;0.90;;;9.20;99.90;;;;;;5015842;28;20526;-77
2021/05/05 00:07:50;;;;;;;1.73;1.20;;;9.30;99.90;;;;;;5018728;27;20439;-77
2021/05/05 00:10:17;;;;;;;2.80;1.50;;;9.30;99.90;;;;;;5014314;28;20450;-77
2021/05/05 00:12:44;;;;;;;1.40;0.90;;;9.30;99.90;;;;;;5015433;27;20465;-77
2021/05/05 00:15:15;;;;;;;3.57;1.33;;;9.30;99.90;;;;;;5022417;27;20540;-77
2021/05/05 00:17:41;;;;;;;2.73;1.30;;;9.30;99.90;;;;;;5033635;27;20568;-76
2021/05/05 00:20:08;;;;;;;4.87;1.50;;;9.30;99.90;;;;;;5033793;27;20959;-77
2021/05/05 00:22:35;;;;;;;3.40;1.40;;;9.50;99.90;;;;;;5019760;27;20483;-77
2021/05/05 00:25:01;;;;;;;1.70;1.43;;;9.50;99.90;;;;;;5026737;27;20489;-77
2021/05/05 00:27:28;;;;;;;1.33;1.23;;;9.60;99.90;;;;;;5022180;27;20542;-77
2021/05/05 00:29:54;;;;;;;1.30;1.07;;;9.60;99.90;;;;;;5017134;28;20919;-77
2021/05/05 00:32:21;;;;;;;2.17;1.37;;;9.50;99.90;;;;;;5036496;27;20450;-76
2021/05/05 00:34:47;;;;;;;4.40;1.20;;;9.50;99.90;;;;;;5014041;28;20559;-77
2021/05/05 00:37:13;;;;;;;3.43;1.33;;;9.40;99.90;;;;;;5024369;27;20612;-77
2021/05/05 00:39:39;;;;;;;3.50;1.30;;;9.40;99.90;;;;;;5027208;27;20445;-77
2021/05/05 00:42:06;;;;;;;1.70;1.37;;;9.40;99.90;;;;;;5013419;28;20474;-77
2021/05/05 00:44:32;;;;;;;7.73;1.40;;;9.30;99.90;;;;;;5021563;27;20528;-79
2021/05/05 00:46:59;;;;;;;5.70;1.23;;;9.30;99.90;;;;;;5015215;27;20549;-79
2021/05/05 00:49:26;;;;;;;1.63;1.20;;;9.20;99.90;;;;;;5017857;28;20807;-79
2021/05/05 00:51:52;;;;;;;2.00;1.30;;;9.10;99.90;;;;;;5019321;27;20920;-79
2021/05/05 00:54:18;;;;;;;3.60;1.30;;;9.00;99.90;;;;;;5025964;27;20470;-79
2021/05/05 00:56:45;;;;;;;2.40;1.70;;;9.00;99.90;;;;;;5024239;27;20850;-79
2021/05/05 00:59:11;;;;;;;3.20;1.50;;;9.00;99.90;;;;;;5021661;28;20574;-79
2021/05/05 01:01:39;;;;;;;3.70;1.53;;;9.00;99.90;;;;;;5020185;28;20542;-79
2021/05/05 01:04:06;;;;;;;2.03;1.20;;;9.10;99.90;;;;;;5014746;27;20451;-79
2021/05/05 01:06:33;;;;;;;4.53;1.23;;;9.10;99.90;;;;;;5024600;27;20553;-79
2021/05/05 01:09:00;;;;;;;2.37;1.30;;;9.00;99.90;;;;;;5016183;27;20452;-79
2021/05/05 01:11:28;;;;;;;1.10;1.00;;;9.00;99.90;;;;;;5015385;27;20489;-78
2021/05/05 01:13:54;;;;;;;2.40;1.33;;;9.00;99.90;;;;;;5027507;27;20445;-78
2021/05/05 01:16:20;;;;;;;3.37;1.30;;;9.00;99.90;;;;;;5015715;28;20529;-78
2021/05/05 01:18:46;;;;;;;1.47;1.37;;;9.10;99.90;;;;;;5026088;27;20518;-78
2021/05/05 01:21:13;;;;;;;1.70;1.20;;;9.10;99.90;;;;;;5018178;27;20450;-79
2021/05/05 01:23:39;;;;;;;3.97;1.40;;;9.10;99.90;;;;;;5013257;28;20516;-79
2021/05/05 01:26:05;;;;;;;5.80;1.70;;;9.20;99.90;;;;;;5012388;27;20541;-78
2021/05/05 01:28:32;;;;;;;3.30;1.70;;;9.30;99.90;;;;;;5011607;28;20489;-78
2021/05/05 01:30:58;;;;;;;2.00;1.50;;;9.20;99.90;;;;;;5014861;28;20449;-79
2021/05/05 01:33:24;;;;;;;1.57;1.47;;;9.20;99.90;;;;;;5010813;27;20542;-79
2021/05/05 01:35:50;;;;;;;5.27;1.67;;;9.10;99.90;;;;;;5016775;28;20454;-79
2021/05/05 01:38:18;;;;;;;3.23;1.10;;;9.00;99.90;;;;;;5019046;27;20541;-79
2021/05/05 01:40:44;;;;;;;3.57;1.43;;;8.90;99.90;;;;;;5013809;28;21001;-79
2021/05/05 01:43:11;;;;;;;2.10;1.70;;;8.80;99.90;;;;;;5017110;27;20805;-79
2021/05/05 01:45:37;;;;;;;2.53;1.70;;;8.80;99.90;;;;;;5021097;27;20539;-79
2021/05/05 01:48:08;;;;;;;3.17;1.83;;;8.70;99.90;;;;;;5017017;28;20486;-79
2021/05/05 01:50:35;;;;;;;3.20;1.20;;;8.60;99.90;;;;;;5012403;28;20486;-79
2021/05/05 01:53:01;;;;;;;2.67;1.60;;;8.60;99.90;;;;;;5011024;28;20454;-79
2021/05/05 01:55:28;;;;;;;2.57;2.37;;;8.60;99.90;;;;;;5010714;28;20486;-78
2021/05/05 01:57:54;;;;;;;2.07;1.50;;;8.50;99.90;;;;;;5012110;28;20502;-78
2021/05/05 02:00:23;;;;;;;1.80;1.70;;;8.50;99.90;;;;;;5012251;28;20500;-79
2021/05/05 02:02:49;;;;;;;2.97;1.20;;;8.50;99.90;;;;;;5010503;28;20853;-78
2021/05/05 02:05:15;;;;;;;2.30;1.33;;;8.50;99.90;;;;;;5010487;28;20493;-78
2021/05/05 02:07:41;;;;;;;2.83;2.10;;;8.60;99.90;;;;;;5010639;28;20454;-78
2021/05/05 02:10:10;;;;;;;2.63;1.33;;;8.70;99.90;;;;;;5024164;28;20657;-79
2021/05/05 02:12:37;;;;;;;2.23;1.40;;;8.70;99.90;;;;;;5062385;27;20464;-78
2021/05/05 02:15:04;;;;;;;2.33;1.27;;;8.70;99.90;;;;;;5081949;27;20446;-78
2021/05/05 02:17:30;;;;;;;2.83;1.50;;;8.80;99.90;;;;;;5101075;27;20555;-78
2021/05/05 02:19:57;;;;;;;3.50;1.80;;;8.80;99.90;;;;;;5047717;27;21092;-78
2021/05/05 02:22:23;;;;;;;4.33;1.67;;;8.90;99.90;;;;;;5111311;27;20473;-78
2021/05/05 02:24:49;;;;;;;2.57;1.57;;;8.90;99.90;;;;;;5071778;27;20483;-78
2021/05/05 02:27:15;;;;;;;1.70;1.30;;;8.90;99.90;;;;;;5076286;27;20449;-78
2021/05/05 02:29:43;;;;;;;2.03;1.80;;;8.80;99.90;;;;;;5109243;27;20532;-78
2021/05/05 02:32:11;;;;;;;2.70;1.30;;;8.80;99.90;;;;;;5047626;27;20680;-78
2021/05/05 02:34:38;;;;;;;2.13;1.40;;;8.70;99.90;;;;;;5100628;27;21057;-78
2021/05/05 02:37:05;;;;;;;3.47;1.52;;;8.60;99.90;;;;;;5082358;27;20867;-79
2021/05/05 02:39:32;;;;;;;2.80;1.55;;;8.60;99.90;;;;;;5051052;27;20602;-78
2021/05/05 02:41:58;;;;;;;3.53;1.90;;;8.60;99.90;;;;;;5016436;28;20341;-79
2021/05/05 02:44:24;;;;;;;7.10;1.93;;;8.50;99.90;;;;;;5031459;27;20532;-78
2021/05/05 02:46:51;;;;;;;3.00;1.50;;;8.50;99.90;;;;;;5014008;28;20483;-78
2021/05/05 02:49:17;;;;;;;2.17;1.37;;;8.50;99.90;;;;;;5017215;28;20515;-79
2021/05/05 02:51:43;;;;;;;2.40;1.50;;;8.60;99.90;;;;;;5020026;28;20483;-79
2021/05/05 02:54:09;;;;;;;5.60;1.57;;;8.60;99.90;;;;;;5032572;28;20580;-79
2021/05/05 02:56:35;;;;;;;3.50;1.80;;;8.60;99.90;;;;;;5021828;28;20486;-79
2021/05/05 02:59:01;;;;;;;4.18;1.48;;;8.60;99.90;;;;;;5035067;28;20489;-79
2021/05/05 03:01:27;;;;;;;2.90;1.63;;;8.50;99.90;;;;;;5015815;28;20235;-79
2021/05/05 03:03:54;;;;;;;3.77;1.60;;;8.40;99.90;;;;;;5020191;28;20485;-79
2021/05/05 03:06:20;;;;;;;2.63;1.40;;;8.40;99.90;;;;;;5027208;28;20560;-79
2021/05/05 03:08:47;;;;;;;3.40;1.90;;;8.40;99.90;;;;;;5027492;28;20455;-79
2021/05/05 03:11:13;;;;;;;3.75;1.40;;;8.30;99.90;;;;;;5012906;28;20277;-79
2021/05/05 03:13:39;;;;;;;8.65;2.08;;;8.30;99.90;;;;;;5021529;28;20273;-79
2021/05/05 03:16:06;;;;;;;3.30;2.10;;;8.20;99.90;;;;;;5013643;28;22890;-79
2021/05/05 03:18:32;;;;;;;2.55;1.80;;;8.10;99.90;;;;;;5013613;28;20222;-79
2021/05/05 03:21:00;;;;;;;6.05;2.33;;;8.10;99.90;;;;;;5018334;28;20218;-79
2021/05/05 03:23:27;;;;;;;5.53;2.00;;;8.10;99.90;;;;;;5020037;28;20553;-79
2021/05/05 03:25:53;;;;;;;4.03;2.00;;;8.10;99.90;;;;;;5021551;27;20504;-79
2021/05/05 03:28:19;;;;;;;3.50;1.58;;;8.00;99.90;;;;;;5023576;27;20477;-79
2021/05/05 03:30:46;;;;;;;1.63;1.53;;;8.00;99.90;;;;;;5022633;27;20219;-79
2021/05/05 03:33:12;;;;;;;4.50;2.30;;;8.00;99.90;;;;;;5015586;27;20537;-78
2021/05/05 03:35:38;;;;;;;3.95;1.67;;;8.00;99.90;;;;;;5026599;27;20479;-79
2021/05/05 03:38:05;;;;;;;2.97;1.50;;;8.00;99.90;;;;;;5020894;27;20254;-79
2021/05/05 03:40:32;;;;;;;3.15;1.60;;;8.00;99.90;;;;;;5027301;27;20264;-79
2021/05/05 03:42:58;;;;;;;4.03;2.35;;;8.10;99.90;;;;;;5029860;27;20191;-79
2021/05/05 03:45:24;;;;;;;3.70;1.77;;;8.10;99.90;;;;;;5030202;27;20321;-79
2021/05/05 03:47:50;;;;;;;6.13;1.98;;;8.20;99.90;;;;;;5040205;27;20278;-79
2021/05/05 03:50:17;;;;;;;1.75;1.23;;;8.30;99.90;;;;;;5030238;27;20215;-79
2021/05/05 03:52:43;;;;;;;4.78;1.70;;;8.40;99.90;;;;;;5013214;28;20290;-79
2021/05/05 03:55:11;;;;;;;1.70;1.30;;;8.40;99.90;;;;;;5016397;28;20278;-79
2021/05/05 03:57:37;;;;;;;2.75;1.90;;;8.50;99.90;;;;;;5015698;28;20986;-78
2021/05/05 04:00:05;;;;;;;4.60;1.52;;;8.70;99.90;;;;;;5019681;27;20261;-78
2021/05/05 04:02:31;;;;;;;1.40;1.30;;;8.80;99.90;;;;;;5032488;27;20242;-78
2021/05/05 04:04:57;;;;;;;2.23;1.67;;;8.90;99.90;;;;;;5023098;27;20446;-79
2021/05/05 04:07:23;;;;;;;3.33;2.03;;;9.00;99.90;;;;;;5024028;27;20458;-79
2021/05/05 04:09:49;;;;;;;7.83;2.13;;;9.20;99.90;;;;;;5017779;27;20519;-79
2021/05/05 04:12:16;;;;;;;6.27;1.73;;;9.20;99.90;;;;;;5014292;28;20556;-79
2021/05/05 04:14:43;;;;;;;2.03;1.40;;;9.20;99.90;;;;;;5017018;27;20461;-79
2021/05/05 04:17:09;;;;;;;3.40;2.10;;;9.30;99.90;;;;;;5024146;27;20852;-78
2021/05/05 04:19:35;;;;;;;7.57;2.27;;;9.40;99.90;;;;;;5025848;27;20486;-78
2021/05/05 04:22:02;;;;;;;3.53;1.77;;;9.40;99.90;;;;;;5026590;27;20861;-78
2021/05/05 04:24:28;;;;;;;4.20;1.77;;;9.50;99.90;;;;;;5033266;27;20555;-78
2021/05/05 04:26:54;;;;;;;3.60;1.50;;;9.60;99.90;;;;;;5014309;28;20489;-79
2021/05/05 04:29:21;;;;;;;4.70;1.37;;;9.60;99.90;;;;;;5014032;27;20543;-79
2021/05/05 04:31:48;;;;;;;3.17;1.43;;;9.70;99.90;;;;;;5024410;27;20486;-79
2021/05/05 04:34:14;;;;;;;2.43;1.40;;;9.70;99.90;;;;;;5033723;27;20508;-79
2021/05/05 04:36:42;;;;;;;3.63;1.60;;;9.80;99.90;;;;;;5016456;28;20450;-79
2021/05/05 04:39:08;;;;;;;1.83;1.20;;;9.80;99.90;;;;;;5021984;27;20517;-79
2021/05/05 04:41:35;;;;;;;7.63;3.60;;;9.90;99.90;;;;;;5023851;27;20499;-79
2021/05/05 04:44:01;;;;;;;2.60;1.33;;;10.00;99.90;;;;;;5016475;28;20458;-79
2021/05/05 04:46:28;;;;;;;4.00;2.87;;;10.00;99.90;;;;;;5016715;27;20453;-79
2021/05/05 04:48:54;;;;;;;1.87;1.50;;;10.10;99.90;;;;;;5016708;28;20541;-79
2021/05/05 04:51:20;;;;;;;3.20;1.37;;;10.20;99.90;;;;;;5019652;28;20489;-79
2021/05/05 04:53:46;;;;;;;3.13;1.63;;;10.30;99.90;;;;;;5011729;28;20478;-79
2021/05/05 04:56:13;;;;;;;5.80;1.40;;;10.40;99.90;;;;;;5011587;28;20494;-79
2021/05/05 04:58:39;;;;;;;2.70;1.20;;;10.50;99.90;;;;;;5011313;28;21011;-79
2021/05/05 05:01:05;;;;;;;3.93;1.50;;;10.60;99.90;;;;;;5012288;28;20454;-79
2021/05/05 05:03:31;;;;;;;3.53;1.80;;;10.60;99.90;;;;;;5014259;28;20509;-79
2021/05/05 05:05:58;;;;;;;3.93;1.20;;;10.60;99.90;;;;;;5011635;28;20490;-79
2021/05/05 05:08:24;;;;;;;4.37;1.40;;;10.50;99.90;;;;;;5011388;28;20486;-79
2021/05/05 05:10:50;;;;;;;5.20;1.63;;;10.50;99.90;;;;;;5011602;28;20489;-79
2021/05/05 05:13:16;;;;;;;2.50;1.57;;;10.50;99.90;;;;;;5011492;28;20786;-79
2021/05/05 05:15:42;;;;;;;3.43;1.73;;;10.60;99.90;;;;;;5011557;28;20842;-79
2021/05/05 05:18:08;;;;;;;3.37;1.47;;;10.60;99.90;;;;;;5014863;27;20549;-79
2021/05/05 05:20:35;;;;;;;5.80;1.70;;;10.70;99.90;;;;;;5024146;27;20541;-79
2021/05/05 05:23:01;;;;;;;3.67;1.93;;;10.70;99.90;;;;;;5017156;27;20845;-79
2021/05/05 05:25:28;;;;;;;2.10;1.50;;;10.80;99.90;;;;;;5022611;27;21046;-79
2021/05/05 05:27:54;;;;;;;4.13;1.70;;;10.90;99.90;;;;;;5030879;28;20449;-79
2021/05/05 05:30:21;;;;;;;5.00;1.67;;;11.00;99.90;;;;;;5020448;27;20527;-79
2021/05/05 05:32:48;;;;;;;2.90;1.73;;;11.10;99.90;;;;;;5033029;27;20455;-79
2021/05/05 05:35:15;;;;;;;3.90;1.60;;;11.30;99.90;;;;;;5013381;28;20537;-79
2021/05/05 05:37:43;;;;;;;1.90;1.60;;;11.40;99.90;;;;;;5020407;27;20570;-78
2021/05/05 05:40:10;;;;;;;13.50;9.80;;;11.70;99.90;;;;;;5011417;28;20774;-79
2021/05/05 05:42:37;;;;;;;3.60;1.60;;;12.10;99.90;;;;;;5023316;27;20480;-79
2021/05/05 05:45:04;;;;;;;2.90;1.50;;;12.40;99.90;;;;;;5010722;28;20485;-80
2021/05/05 05:47:30;;;;;;;1.60;1.33;;;12.40;99.90;;;;;;5018627;28;20539;-79
2021/05/05 05:49:56;;;;;;;6.23;1.70;;;12.50;99.90;;;;;;5015346;27;20548;-79
2021/05/05 05:52:22;;;;;;;2.07;1.30;;;12.40;99.90;;;;;;5015621;27;20477;-80
2021/05/05 05:54:49;;;;;;;4.67;1.30;;;12.30;99.90;;;;;;5025626;27;20489;-79
2021/05/05 05:57:16;;;;;;;3.33;1.77;;;12.00;99.90;;;;;;5018876;27;21073;-78
2021/05/05 05:59:43;;;;;;;1.77;1.50;;;12.00;99.90;;;;;;5028010;27;20848;-79
2021/05/05 06:02:09;;;;;;;3.70;1.83;;;11.90;99.90;;;;;;5031625;27;20552;-79
2021/05/05 06:04:35;;;;;;;4.37;1.47;;;11.90;99.90;;;;;;5013751;28;20454;-79
2021/05/05 06:07:01;;;;;;;4.00;1.50;;;11.90;99.90;;;;;;5014023;28;20489;-79
2021/05/05 06:09:27;;;;;;;2.50;1.30;;;11.80;99.90;;;;;;5026277;27;20885;-78
2021/05/05 06:11:54;;;;;;;3.10;1.43;;;11.90;99.90;;;;;;5015391;28;21044;-78
2021/05/05 06:14:20;;;;;;;4.03;1.70;;;12.20;99.90;;;;;;5011260;28;20480;-77
2021/05/05 06:16:46;;;;;;;2.33;1.77;;;12.40;99.90;;;;;;5014607;27;21063;-77
2021/05/05 06:19:12;;;;;;;3.03;1.57;;;12.70;99.90;;;;;;5022727;27;20497;-77
2021/05/05 06:21:38;;;;;;;3.10;1.27;;;13.20;99.90;;;;;;5020127;28;20549;-77
2021/05/05 06:24:06;;;;;;;3.80;1.20;;;14.00;99.90;;;;;;5021958;27;20542;-77
2021/05/05 06:26:32;;;;;;;4.73;1.57;;;14.10;99.90;;;;;;5040648;27;20493;-77
2021/05/05 06:28:59;;;;;;;1.33;1.20;;;13.90;99.90;;;;;;5023441;27;20618;-77
2021/05/05 06:31:25;;;;;;;5.37;1.30;;;13.70;99.90;;;;;;5030924;27;20622;-77
2021/05/05 06:33:51;;;;;;;1.90;1.40;;;13.60;99.90;;;;;;5013700;27;20820;-78
2021/05/05 06:36:17;;;;;;;2.93;1.33;;;13.60;99.90;;;;;;5014830;28;20446;-77
2021/05/05 06:38:43;;;;;;;2.80;1.43;;;13.50;99.90;;;;;;5015795;28;20575;-77
2021/05/05 06:41:09;;;;;;;3.77;1.57;;;13.50;99.90;;;;;;5015702;28;20488;-77
2021/05/05 06:43:36;;;;;;;1.90;1.13;;;13.50;99.90;;;;;;5012782;28;21005;-77
2021/05/05 06:46:03;;;;;;;2.10;1.40;;;13.60;99.90;;;;;;5014853;28;20955;-78
2021/05/05 06:48:29;;;;;;;1.23;1.13;;;13.90;99.90;;;;;;5016346;28;20461;-78
2021/05/05 06:50:56;;;;;;;2.33;2.00;;;14.40;99.90;;;;;;5012828;28;20979;-78
2021/05/05 06:53:22;;;;;;;1.87;1.30;;;14.80;99.90;;;;;;5021423;28;20544;-78
2021/05/05 06:55:49;;;;;;;1.87;1.30;;;15.10;99.90;;;;;;5013169;28;20844;-78
2021/05/05 06:58:15;;;;;;;1.83;1.40;;;15.30;99.90;;;;;;5012736;28;20483;-79
2021/05/05 07:00:41;;;;;;;2.27;1.50;;;15.60;99.90;;;;;;5015692;27;20860;-78
2021/05/05 07:03:08;;;;;;;2.17;1.30;;;16.00;99.90;;;;;;5027335;27;20474;-78
2021/05/05 07:05:34;;;;;;;3.43;1.40;;;16.60;99.90;;;;;;5018723;28;20462;-78
2021/05/05 07:08:00;;;;;;;2.30;1.20;;;16.80;99.90;;;;;;5017973;27;20481;-77
2021/05/05 07:10:26;;;;;;;3.20;1.70;;;16.50;99.90;;;;;;5021900;27;20474;-77
2021/05/05 07:12:52;;;;;;;1.60;1.50;;;16.10;99.90;;;;;;5032866;27;20581;-77
2021/05/05 07:15:18;;;;;;;1.63;1.37;;;15.60;99.90;;;;;;5019027;27;20558;-77
2021/05/05 07:17:44;;;;;;;1.53;1.37;;;15.10;99.90;;;;;;5015735;27;20541;-77
2021/05/05 07:20:13;;;;;;;2.33;1.50;;;14.80;99.90;;;;;;5035046;27;20850;-77
2021/05/05 07:22:39;;;;;;;3.20;2.10;;;14.40;99.90;;;;;;5027280;27;20534;-79
2021/05/05 07:25:06;;;;;;;2.67;1.73;;;14.30;99.90;;;;;;5016604;28;20454;-79
2021/05/05 07:27:32;;;;;;;2.87;1.80;;;14.00;99.90;;;;;;5024744;27;20461;-80
2021/05/05 07:29:58;;;;;;;4.60;1.73;;;14.00;99.90;;;;;;5017352;27;20505;-80
2021/05/05 07:32:25;;;;;;;1.77;1.67;;;13.90;99.90;;;;;;5027611;28;20449;-79
2021/05/05 07:34:52;;;;;;;3.27;1.87;;;13.80;99.90;;;;;;5032019;28;20562;-77
2021/05/05 07:37:27;;;;;;;2.40;2.17;;;13.70;99.90;;;;;;5031820;28;20485;-78
2021/05/05 07:40:18;;;;;;;1.40;1.30;;;13.60;99.90;;;;;;5029512;28;20483;-78
2021/05/05 07:45:38;;;;;;;2.30;1.67;;;14.60;99.90;;;;;;5041410;28;20498;-78
2021/05/05 07:48:07;;;;;;;1.60;1.50;;;14.90;99.90;;;;;;5039188;27;20465;-78
2021/05/05 07:50:33;;;;;;;1.50;1.37;;;14.70;99.90;;;;;;5066445;27;20460;-78
2021/05/05 07:53:01;;;;;;;1.80;1.50;;;14.60;99.90;;;;;;5077692;27;20502;-78
2021/05/05 07:55:27;;;;;;;2.60;1.60;;;14.40;99.90;;;;;;5070512;27;21156;-77
2021/05/05 07:57:53;;;;;;;3.20;1.80;;;14.20;99.90;;;;;;5116601;27;20530;-77
2021/05/05 08:00:20;;;;;;;2.90;1.60;;;14.10;99.90;;;;;;5049708;27;20863;-77
2021/05/05 08:02:46;;;;;;;1.53;1.43;;;14.00;99.90;;;;;;5110775;27;20547;-79
2021/05/05 08:05:13;;;;;;;2.70;1.10;;;14.00;99.90;;;;;;5039494;27;20955;-77
2021/05/05 08:07:39;;;;;;;2.70;1.33;;;14.10;99.90;;;;;;5032427;27;20479;-78
2021/05/05 08:10:07;;;;;;;7.80;1.83;;;14.10;99.90;;;;;;5039508;27;20536;-77
2021/05/05 08:12:34;;;;;;;2.13;1.40;;;14.00;99.90;;;;;;5108645;27;20477;-78
2021/05/05 08:15:00;;;;;;;2.83;1.90;;;14.00;99.90;;;;;;5078594;27;20445;-78
2021/05/05 08:17:27;;;;;;;2.37;1.50;;;14.20;99.90;;;;;;5070499;27;20530;-78
2021/05/05 08:19:53;;;;;;;2.23;1.50;;;14.40;99.90;;;;;;5116303;27;20990;-77
2021/05/05 08:22:19;;;;;;;3.13;1.30;;;14.60;99.90;;;;;;5049164;27;20445;-77
2021/05/05 08:24:45;;;;;;;2.80;1.33;;;14.70;99.90;;;;;;5100048;27;20850;-78
2021/05/05 08:27:12;;;;;;;2.23;1.40;;;14.60;99.90;;;;;;5086170;27;20472;-77
2021/05/05 08:29:38;;;;;;;2.07;1.10;;;14.60;99.90;;;;;;5061533;27;20481;-78
2021/05/05 08:32:05;;;;;;;2.20;1.20;;;14.50;99.90;;;;;;5117690;27;20502;-78
2021/05/05 08:34:31;;;;;;;1.40;1.30;;;14.50;99.90;;;;;;5057008;27;20441;-78
2021/05/05 08:36:58;;;;;;;2.20;1.63;;;14.60;99.90;;;;;;5091027;27;20487;-78
2021/05/05 08:39:24;;;;;;;2.50;2.27;;;14.70;99.90;;;;;;5095114;27;20504;-77
2021/05/05 08:41:52;;;;;;;3.30;1.40;;;14.80;99.90;;;;;;5052861;27;20488;-78
2021/05/05 08:44:20;;;;;;;3.00;1.50;;;14.80;99.90;;;;;;5047544;27;20540;-77
2021/05/05 08:46:47;;;;;;;1.70;1.60;;;14.50;99.90;;;;;;5099389;27;20571;-77
2021/05/05 08:49:15;;;;;;;2.87;1.90;;;14.20;99.90;;;;;;5086990;27;20524;-77
2021/05/05 08:51:41;;;;;;;1.63;1.53;;;13.80;99.90;;;;;;5059653;27;20473;-76
2021/05/05 08:54:08;;;;;;;3.97;2.07;;;13.40;99.90;;;;;;5107297;27;21239;-76
2021/05/05 08:56:36;;;;;;;2.80;1.90;;;13.30;99.90;;;;;;5107438;27;20945;-75
2021/05/05 08:59:03;;;;;;;1.90;1.80;;;13.60;99.90;;;;;;5078760;27;20468;-75
2021/05/05 09:01:30;;;;;;;1.80;1.70;;;13.70;99.90;;;;;;5067890;27;20540;-76
2021/05/05 09:03:56;;;;;;;3.50;2.03;;;13.60;99.90;;;;;;5117185;27;20781;-75
2021/05/05 09:06:43;;;;;;;3.00;1.90;;;13.50;99.90;;;;;;5054434;27;20468;-76
2021/05/05 09:09:10;;;;;;;2.63;2.10;;;13.50;99.90;;;;;;5064116;27;20453;-75
2021/05/05 09:11:44;;;;;;;1.93;1.70;;;13.70;99.90;;;;;;5042828;27;20446;-75
2021/05/05 09:14:10;;;;;;;1.60;1.50;;;13.90;99.90;;;;;;5050856;27;20450;-75
2021/05/05 09:16:37;;;;;;;2.30;1.37;;;13.90;99.90;;;;;;5089466;27;20452;-75
2021/05/05 09:19:05;;;;;;;4.43;1.47;;;13.70;99.90;;;;;;5086371;27;20878;-75
2021/05/05 09:21:37;;;;;;;1.70;1.50;;;13.50;99.90;;;;;;5050029;28;20477;-75
2021/05/05 09:24:21;;;;;;;1.10;1.00;;;13.20;99.90;;;;;;5116944;27;20985;-75
2021/05/05 09:26:49;;;;;;;1.87;1.27;;;13.20;99.90;;;;;;5067286;27;20445;-76
2021/05/05 09:29:15;;;;;;;1.87;0.97;;;13.30;99.90;;;;;;5077155;27;20808;-75
2021/05/05 09:31:43;;;;;;;1.03;0.93;;;13.30;99.90;;;;;;5066829;27;20473;-75
2021/05/05 09:34:10;;;;;;;3.50;0.90;;;13.20;99.90;;;;;;5116326;27;20448;-75
2021/05/05 09:36:37;;;;;;;2.60;1.10;;;13.20;99.90;;;;;;5059679;27;20524;-75
2021/05/05 09:39:05;;;;;;;1.97;0.90;;;13.20;99.90;;;;;;5085309;27;20539;-79
2021/05/05 09:41:33;;;;;;;3.00;1.83;;;13.40;99.90;;;;;;5098926;27;20473;-76
2021/05/05 09:44:02;;;;;;;1.60;0.93;;;13.50;99.90;;;;;;5048156;27;20804;-76
2021/05/05 09:46:40;;;;;;;2.90;1.17;;;13.80;99.90;;;;;;5110652;27;20454;-76
2021/05/05 09:49:28;;;;;;;1.90;1.30;;;14.00;99.90;;;;;;5080916;27;20946;-76
2021/05/05 09:51:57;;;;;;;1.60;1.30;;;14.00;99.90;;;;;;5048848;27;20449;-77
2021/05/05 09:54:29;;;;;;;1.67;1.40;;;14.10;99.90;;;;;;5033915;27;20448;-76
2021/05/05 09:57:12;;;;;;;1.87;1.20;;;14.40;99.90;;;;;;5090868;27;20453;-76
2021/05/05 09:59:54;;;;;;;1.93;1.50;;;14.80;99.90;;;;;;5103785;27;20511;-76
2021/05/05 10:02:20;;;;;;;1.80;1.70;;;14.80;99.90;;;;;;5047469;27;20555;-76
2021/05/05 10:04:57;;;;;;;1.70;1.43;;;14.70;99.90;;;;;;5107138;27;20456;-77
2021/05/05 10:07:23;;;;;;;2.07;1.40;;;14.70;99.90;;;;;;5068084;27;20481;-75
2021/05/05 10:09:50;;;;;;;2.03;1.57;;;14.80;99.90;;;;;;5111673;27;20459;-76
2021/05/05 10:12:19;;;;;;;1.73;1.40;;;14.90;99.90;;;;;;5047541;27;21171;-75
2021/05/05 10:14:46;;;;;;;2.10;1.70;;;14.70;99.90;;;;;;5097694;27;20533;-76
2021/05/05 10:17:13;;;;;;;1.27;1.17;;;14.50;99.90;;;;;;5085323;27;20533;-76
2021/05/05 10:19:41;;;;;;;1.40;1.30;;;14.60;99.90;;;;;;5059396;27;20513;-76
2021/05/05 10:22:08;;;;;;;1.53;1.10;;;14.60;99.90;;;;;;5115660;27;20986;-76
2021/05/05 10:24:38;;;;;;;1.43;1.30;;;14.40;99.90;;;;;;5045340;27;20543;-76
2021/05/05 10:27:05;;;;;;;1.10;1.03;;;14.20;99.90;;;;;;5060764;27;20528;-76
2021/05/05 10:29:34;;;;;;;1.57;1.10;;;14.10;99.90;;;;;;5098071;27;20531;-75
2021/05/05 10:32:05;;;;;;;1.53;1.40;;;14.00;99.90;;;;;;5064003;27;20453;-76
2021/05/05 10:34:31;;;;;;;1.20;1.10;;;13.90;99.90;;;;;;5067641;27;20446;-76
2021/05/05 10:37:00;;;;;;;1.67;1.37;;;13.90;99.90;;;;;;5034797;27;20449;-76
2021/05/05 10:39:36;;;;;;;1.20;1.10;;;14.00;99.90;;;;;;5034797;28;20480;-76
2021/05/05 10:42:13;;;;;;;1.23;1.13;;;14.20;99.90;;;;;;5115632;27;20476;-76
2021/05/05 10:44:41;;;;;;;2.93;1.33;;;14.50;99.90;;;;;;5061081;27;20436;-75
2021/05/05 10:47:46;;;;;;;1.97;1.20;;;14.70;99.90;;;;;;5073167;27;20487;-78
2021/05/05 10:50:13;;;;;;;4.10;1.30;;;14.50;99.90;;;;;;5116178;27;20448;-75
2021/05/05 10:53:07;;;;;;;1.20;1.10;;;14.30;99.90;;;;;;5046687;28;20437;-75
2021/05/05 10:55:37;;;;;;;1.17;1.07;;;14.20;99.90;;;;;;5079122;28;20445;-78
2021/05/05 10:58:06;;;;;;;2.70;1.10;;;14.30;99.90;;;;;;5051951;28;20449;-76
2021/05/05 11:00:44;;;;;;;1.73;0.87;;;14.20;99.90;;;;;;5053320;28;20452;-75
2021/05/05 11:03:10;;;;;;;1.00;0.90;;;14.00;99.90;;;;;;5074412;28;20469;-75
2021/05/05 11:05:38;;;;;;;1.30;0.90;;;13.80;99.90;;;;;;5084506;28;20453;-75
2021/05/05 11:08:05;;;;;;;1.10;1.00;;;13.70;99.90;;;;;;5060080;28;20456;-75
2021/05/05 11:10:50;;;;;;;2.50;1.10;;;13.60;99.90;;;;;;5056693;27;20532;-76
2021/05/05 11:13:39;;;;;;;2.60;1.30;;;13.60;99.90;;;;;;5077744;28;20491;-76
2021/05/05 11:16:10;;;;;;;1.90;1.23;;;13.60;99.90;;;;;;5095148;27;20527;-76
2021/05/05 11:18:43;;;;;;;5.23;1.10;;;13.90;99.90;;;;;;5082633;28;20496;-75
2021/05/05 11:21:32;;;;;;;1.10;0.90;;;14.20;99.90;;;;;;5077076;28;20450;-76
2021/05/05 11:23:59;;;;;;;1.50;0.83;;;14.70;99.90;;;;;;5060574;28;20477;-76
2021/05/05 11:26:27;;;;;;;0.80;0.60;;;15.30;99.90;;;;;;5071905;28;20473;-76
2021/05/05 11:28:55;;;;;;;3.97;1.03;;;15.40;99.90;;;;;;5084534;28;20445;-76
2021/05/05 11:31:41;;;;;;;2.20;1.03;;;15.40;99.90;;;;;;5077366;28;20800;-76
2021/05/05 11:34:08;;;;;;;1.27;0.70;;;15.60;99.90;;;;;;5066417;28;20496;-76
2021/05/05 11:36:34;;;;;;;2.33;0.80;;;15.80;99.20;;;;;;5077661;28;20449;-76
2021/05/05 11:39:01;;;;;;;1.27;0.77;;;15.90;97.90;;;;;;5084624;28;20508;-76
2021/05/05 11:41:29;;;;;;;1.73;0.77;;;15.80;96.80;;;;;;5071701;27;20452;-76
2021/05/05 11:43:56;;;;;;;1.33;0.70;;;15.70;96.40;;;;;;5040806;28;20544;-77
2021/05/05 11:46:23;;;;;;;2.20;0.80;;;15.70;95.50;;;;;;5072433;27;20509;-76
2021/05/05 11:48:49;;;;;;;4.20;0.70;;;15.60;95.80;;;;;;5088280;27;20505;-76
2021/05/05 11:51:22;;;;;;;1.43;0.90;;;15.60;96.00;;;;;;5085442;27;20543;-76
2021/05/05 11:53:48;;;;;;;2.10;0.80;;;15.70;94.20;;;;;;5070144;27;20481;-76
2021/05/05 11:56:17;;;;;;;3.20;0.90;;;15.80;94.40;;;;;;5070042;27;20477;-76
2021/05/05 11:58:52;;;;;;;1.40;0.80;;;15.90;93.70;;;;;;5087488;27;20507;-76
2021/05/05 12:01:28;;;;;;;1.80;0.80;;;16.10;92.20;;;;;;5083662;27;20471;-76
2021/05/05 12:04:12;;;;;;;6.63;0.97;;;15.80;90.00;;;;;;5064695;27;20777;-76
2021/05/05 12:06:53;;;;;;;1.10;1.00;;;15.50;91.60;;;;;;5071044;27;20477;-76
2021/05/05 12:09:30;;;;;;;2.50;0.90;;;15.40;91.80;;;;;;5042154;27;20530;-76
2021/05/05 12:12:16;;;;;;;1.73;0.70;;;15.60;93.20;;;;;;5045311;27;20528;-76
2021/05/05 12:14:45;;;;;;;1.30;0.70;;;15.90;93.20;;;;;;5058431;27;20947;-76
2021/05/05 12:17:15;;;;;;;8.07;1.10;;;16.10;92.40;;;;;;5037367;27;20955;-76
2021/05/05 12:19:55;;;;;;;1.00;0.90;;;16.20;90.80;;;;;;5036925;27;20489;-76
2021/05/05 12:22:21;;;;;;;3.10;0.80;;;16.30;91.20;;;;;;5037926;27;20481;-76
2021/05/05 12:25:11;;;;;;;2.53;0.70;;;16.20;90.60;;;;;;5114815;27;20457;-76
2021/05/05 12:27:39;;;;;;;3.17;0.90;;;16.00;90.60;;;;;;5087775;27;20479;-75
2021/05/05 12:30:07;;;;;;;3.03;1.20;;;15.80;89.70;;;;;;5059221;27;20449;-75
2021/05/05 12:32:44;;;;;;;7.00;1.30;;;15.50;89.80;;;;;;5118121;27;20485;-76
2021/05/05 12:35:12;;;;;;;3.10;1.17;;;15.20;90.10;;;;;;5068427;27;20440;-75
2021/05/05 12:37:39;;;;;;;5.43;1.00;;;15.10;90.60;;;;;;5077982;27;20445;-75
2021/05/05 12:40:08;;;;;;;7.07;2.50;;;15.00;91.30;;;;;;5033904;27;20935;-75
2021/05/05 12:42:35;;;;;;;5.20;1.53;;;14.90;91.50;;;;;;5053674;27;20452;-76
2021/05/05 12:45:08;;;;;;;1.80;1.23;;;14.70;91.90;;;;;;5044516;27;20456;-76
2021/05/05 12:47:34;;;;;;;3.37;1.70;;;14.70;92.80;;;;;;5044239;27;21023;-75
2021/05/05 12:50:00;;;;;;;2.07;1.13;;;14.70;92.80;;;;;;5033914;27;20842;-75
2021/05/05 12:52:30;;;;;;;1.40;1.07;;;14.90;92.50;;;;;;5039772;27;20480;-75
2021/05/05 12:54:57;;;;;;;4.07;1.40;;;15.10;91.50;;;;;;5035419;27;20457;-75
2021/05/05 12:57:25;;;;;;;3.47;1.20;;;15.30;91.10;;;;;;5035434;27;20476;-76